sensor_id;sensor_type;location;lat;lon;timestamp;pressure;altitude;pressure_sealevel;temperature;humidity
34328;BME280;20588;48.840;10.064;2023-03-25T00:00:20;95864.50;;;9.32;nan
34328;BME280;20588;48.840;10.064;2023-03-25T00:02:49;95856.91;;;9.25;nan
34328;BME280;20588;48.840;10.064;2023-03-25T00:05:18;95851.44;;;9.22;nan
34328;BME280;20588;48.840;10.064;2023-03-25T00:07:46;95858.66;;;9.13;nan
34328;BME280;20588;48.840;10.064;2023-03-25T00:10:13;95857.16;;;9.05;nan
34328;BME280;20588;48.840;10.064;2023-03-25T00:12:40;95850.13;;;9.01;nan
34328;BME280;20588;48.840;10.064;2023-03-25T00:15:09;95853.88;;;8.98;nan
34328;BME280;20588;48.840;10.064;2023-03-25T00:17:36;95852.91;;;8.99;nan
34328;BME280;20588;48.840;10.064;2023-03-25T00:20:04;95852.75;;;8.94;nan
34328;BME280;20588;48.840;10.064;2023-03-25T00:22:33;95857.88;;;8.94;nan
34328;BME280;20588;48.840;10.064;2023-03-25T00:25:06;95849.06;;;8.90;nan
34328;BME280;20588;48.840;10.064;2023-03-25T00:27:33;95842.03;;;8.86;nan
34328;BME280;20588;48.840;10.064;2023-03-25T00:29:59;95854.41;;;8.89;nan
34328;BME280;20588;48.840;10.064;2023-03-25T00:32:25;95847.38;;;8.84;nan
34328;BME280;20588;48.840;10.064;2023-03-25T00:34:54;95851.91;;;8.82;nan
34328;BME280;20588;48.840;10.064;2023-03-25T00:37:20;95850.22;;;8.76;nan
34328;BME280;20588;48.840;10.064;2023-03-25T00:39:47;95859.81;;;8.81;nan
34328;BME280;20588;48.840;10.064;2023-03-25T00:42:17;95866.59;;;8.75;nan
34328;BME280;20588;48.840;10.064;2023-03-25T00:44:51;95867.00;;;8.72;nan
34328;BME280;20588;48.840;10.064;2023-03-25T00:47:17;95870.59;;;8.71;nan
34328;BME280;20588;48.840;10.064;2023-03-25T00:49:46;95876.72;;;8.70;nan
34328;BME280;20588;48.840;10.064;2023-03-25T00:52:12;95884.41;;;8.70;nan
34328;BME280;20588;48.840;10.064;2023-03-25T00:54:39;95901.63;;;8.63;nan
34328;BME280;20588;48.840;10.064;2023-03-25T00:57:05;95888.81;;;8.63;nan
34328;BME280;20588;48.840;10.064;2023-03-25T00:59:31;95904.28;;;8.57;nan
34328;BME280;20588;48.840;10.064;2023-03-25T01:01:57;95894.28;;;8.49;nan
34328;BME280;20588;48.840;10.064;2023-03-25T01:04:23;95877.03;;;8.38;nan
34328;BME280;20588;48.840;10.064;2023-03-25T01:06:49;95862.38;;;8.27;nan
34328;BME280;20588;48.840;10.064;2023-03-25T01:09:20;95862.19;;;8.22;nan
34328;BME280;20588;48.840;10.064;2023-03-25T01:11:47;95840.97;;;8.15;nan
34328;BME280;20588;48.840;10.064;2023-03-25T01:14:19;95847.50;;;8.11;nan
34328;BME280;20588;48.840;10.064;2023-03-25T01:16:45;95848.13;;;8.06;nan
34328;BME280;20588;48.840;10.064;2023-03-25T01:19:13;95847.53;;;8.04;nan
34328;BME280;20588;48.840;10.064;2023-03-25T01:21:39;95845.19;;;8.03;nan
34328;BME280;20588;48.840;10.064;2023-03-25T01:24:07;95835.22;;;7.95;nan
34328;BME280;20588;48.840;10.064;2023-03-25T01:26:36;95837.00;;;7.94;nan
34328;BME280;20588;48.840;10.064;2023-03-25T01:29:03;95835.44;;;7.93;nan
34328;BME280;20588;48.840;10.064;2023-03-25T01:31:29;95826.53;;;7.96;nan
34328;BME280;20588;48.840;10.064;2023-03-25T01:33:56;95829.38;;;7.88;nan
34328;BME280;20588;48.840;10.064;2023-03-25T01:36:23;95834.34;;;7.83;nan
34328;BME280;20588;48.840;10.064;2023-03-25T01:38:50;95833.56;;;7.82;nan
34328;BME280;20588;48.840;10.064;2023-03-25T01:41:16;95825.28;;;7.80;nan
34328;BME280;20588;48.840;10.064;2023-03-25T01:44:01;95820.03;;;7.75;nan
34328;BME280;20588;48.840;10.064;2023-03-25T01:46:27;95819.88;;;7.70;nan
34328;BME280;20588;48.840;10.064;2023-03-25T01:48:53;95813.59;;;7.66;nan
34328;BME280;20588;48.840;10.064;2023-03-25T01:51:26;95805.75;;;7.61;nan
34328;BME280;20588;48.840;10.064;2023-03-25T01:53:54;95802.47;;;7.54;nan
34328;BME280;20588;48.840;10.064;2023-03-25T01:56:27;95787.25;;;7.59;nan
34328;BME280;20588;48.840;10.064;2023-03-25T01:58:58;95798.91;;;7.55;nan
34328;BME280;20588;48.840;10.064;2023-03-25T02:01:25;95798.91;;;7.55;nan
34328;BME280;20588;48.840;10.064;2023-03-25T02:03:54;95796.19;;;7.50;nan
34328;BME280;20588;48.840;10.064;2023-03-25T02:06:32;95791.91;;;7.44;nan
34328;BME280;20588;48.840;10.064;2023-03-25T02:09:02;95786.47;;;7.34;nan
34328;BME280;20588;48.840;10.064;2023-03-25T02:11:32;95781.97;;;7.29;nan
34328;BME280;20588;48.840;10.064;2023-03-25T02:14:03;95776.91;;;7.23;nan
34328;BME280;20588;48.840;10.064;2023-03-25T02:16:57;95776.69;;;7.24;nan
34328;BME280;20588;48.840;10.064;2023-03-25T02:22:49;95790.34;;;7.12;nan
34328;BME280;20588;48.840;10.064;2023-03-25T02:28:32;95788.38;;;7.14;nan
34328;BME280;20588;48.840;10.064;2023-03-25T02:31:10;95778.94;;;7.14;nan
34328;BME280;20588;48.840;10.064;2023-03-25T02:45:02;95784.31;;;7.31;nan
34328;BME280;20588;48.840;10.064;2023-03-25T02:47:39;95785.88;;;7.32;nan
34328;BME280;20588;48.840;10.064;2023-03-25T02:50:15;95782.31;;;7.33;nan
34328;BME280;20588;48.840;10.064;2023-03-25T02:52:46;95790.59;;;7.35;nan
34328;BME280;20588;48.840;10.064;2023-03-25T02:55:16;95787.63;;;7.38;nan
34328;BME280;20588;48.840;10.064;2023-03-25T02:57:46;95784.63;;;7.41;nan
34328;BME280;20588;48.840;10.064;2023-03-25T03:00:16;95789.13;;;7.46;nan
34328;BME280;20588;48.840;10.064;2023-03-25T03:02:50;95792.06;;;7.49;nan
34328;BME280;20588;48.840;10.064;2023-03-25T03:05:23;95790.66;;;7.53;nan
34328;BME280;20588;48.840;10.064;2023-03-25T03:10:43;95791.97;;;7.62;nan
34328;BME280;20588;48.840;10.064;2023-03-25T03:13:32;95785.88;;;7.63;nan
34328;BME280;20588;48.840;10.064;2023-03-25T03:16:27;95771.63;;;7.67;nan
34328;BME280;20588;48.840;10.064;2023-03-25T03:24:37;95773.53;;;7.78;nan
34328;BME280;20588;48.840;10.064;2023-03-25T03:27:11;95759.88;;;7.84;nan
34328;BME280;20588;48.840;10.064;2023-03-25T03:29:47;95767.91;;;7.88;nan
34328;BME280;20588;48.840;10.064;2023-03-25T03:32:47;95770.25;;;7.89;nan
34328;BME280;20588;48.840;10.064;2023-03-25T03:35:26;95778.34;;;7.86;nan
34328;BME280;20588;48.840;10.064;2023-03-25T03:38:00;95777.94;;;7.89;nan
34328;BME280;20588;48.840;10.064;2023-03-25T03:40:28;95792.31;;;7.90;nan
34328;BME280;20588;48.840;10.064;2023-03-25T03:43:02;95796.59;;;7.96;nan
34328;BME280;20588;48.840;10.064;2023-03-25T03:45:35;95804.72;;;7.93;nan
34328;BME280;20588;48.840;10.064;2023-03-25T03:48:16;95829.53;;;7.93;nan
34328;BME280;20588;48.840;10.064;2023-03-25T03:50:51;95824.63;;;7.91;nan
34328;BME280;20588;48.840;10.064;2023-03-25T03:56:03;95846.31;;;7.89;nan
34328;BME280;20588;48.840;10.064;2023-03-25T03:58:36;95857.13;;;7.91;nan
34328;BME280;20588;48.840;10.064;2023-03-25T04:01:09;95863.16;;;7.78;nan
34328;BME280;20588;48.840;10.064;2023-03-25T04:06:38;95857.69;;;7.68;nan
34328;BME280;20588;48.840;10.064;2023-03-25T04:09:19;95849.47;;;7.60;nan
34328;BME280;20588;48.840;10.064;2023-03-25T04:12:19;95848.16;;;7.51;nan
34328;BME280;20588;48.840;10.064;2023-03-25T04:14:47;95851.97;;;7.42;nan
34328;BME280;20588;48.840;10.064;2023-03-25T04:17:13;95861.81;;;7.38;nan
34328;BME280;20588;48.840;10.064;2023-03-25T04:19:39;95870.91;;;7.34;nan
34328;BME280;20588;48.840;10.064;2023-03-25T04:22:05;95868.19;;;7.29;nan
34328;BME280;20588;48.840;10.064;2023-03-25T04:24:32;95869.00;;;7.23;nan
34328;BME280;20588;48.840;10.064;2023-03-25T04:27:02;95860.72;;;7.21;nan
34328;BME280;20588;48.840;10.064;2023-03-25T04:29:29;95863.91;;;7.16;nan
34328;BME280;20588;48.840;10.064;2023-03-25T04:31:57;95872.00;;;7.13;nan
34328;BME280;20588;48.840;10.064;2023-03-25T04:34:23;95866.88;;;7.13;nan
34328;BME280;20588;48.840;10.064;2023-03-25T04:36:49;95874.75;;;7.12;nan
34328;BME280;20588;48.840;10.064;2023-03-25T04:39:16;95871.84;;;7.08;nan
34328;BME280;20588;48.840;10.064;2023-03-25T04:41:43;95865.34;;;7.06;nan
34328;BME280;20588;48.840;10.064;2023-03-25T04:44:09;95868.47;;;7.08;nan
34328;BME280;20588;48.840;10.064;2023-03-25T04:46:37;95865.75;;;7.03;nan
34328;BME280;20588;48.840;10.064;2023-03-25T04:49:04;95868.09;;;7.04;nan
34328;BME280;20588;48.840;10.064;2023-03-25T04:51:39;95867.34;;;6.97;nan
34328;BME280;20588;48.840;10.064;2023-03-25T04:54:09;95871.09;;;6.95;nan
34328;BME280;20588;48.840;10.064;2023-03-25T04:56:35;95878.00;;;6.94;nan
34328;BME280;20588;48.840;10.064;2023-03-25T04:59:02;95875.44;;;6.88;nan
34328;BME280;20588;48.840;10.064;2023-03-25T05:01:29;95886.28;;;6.83;nan
34328;BME280;20588;48.840;10.064;2023-03-25T05:03:59;95884.72;;;6.82;nan
34328;BME280;20588;48.840;10.064;2023-03-25T05:06:37;95883.16;;;6.81;nan
34328;BME280;20588;48.840;10.064;2023-03-25T05:09:05;95883.94;;;6.82;nan
34328;BME280;20588;48.840;10.064;2023-03-25T05:11:33;95885.13;;;6.79;nan
34328;BME280;20588;48.840;10.064;2023-03-25T05:14:00;95881.00;;;6.78;nan
34328;BME280;20588;48.840;10.064;2023-03-25T05:16:26;95889.28;;;6.74;nan
34328;BME280;20588;48.840;10.064;2023-03-25T05:18:52;95886.94;;;6.72;nan
34328;BME280;20588;48.840;10.064;2023-03-25T05:21:18;95887.53;;;6.68;nan
34328;BME280;20588;48.840;10.064;2023-03-25T05:23:44;95876.31;;;6.69;nan
34328;BME280;20588;48.840;10.064;2023-03-25T05:26:11;95888.88;;;6.70;nan
34328;BME280;20588;48.840;10.064;2023-03-25T05:28:39;95890.28;;;6.66;nan
34328;BME280;20588;48.840;10.064;2023-03-25T05:31:05;95893.59;;;6.80;nan
34328;BME280;20588;48.840;10.064;2023-03-25T05:33:36;95888.50;;;6.73;nan
34328;BME280;20588;48.840;10.064;2023-03-25T05:36:16;95898.91;;;6.72;nan
34328;BME280;20588;48.840;10.064;2023-03-25T05:38:42;95901.88;;;6.75;nan
34328;BME280;20588;48.840;10.064;2023-03-25T05:41:13;95897.31;;;6.77;nan
34328;BME280;20588;48.840;10.064;2023-03-25T05:43:44;95901.47;;;6.78;nan
34328;BME280;20588;48.840;10.064;2023-03-25T05:46:16;95914.41;;;6.83;nan
34328;BME280;20588;48.840;10.064;2023-03-25T05:48:43;95911.44;;;6.86;nan
34328;BME280;20588;48.840;10.064;2023-03-25T05:51:13;95917.53;;;6.92;nan
34328;BME280;20588;48.840;10.064;2023-03-25T05:53:44;95927.38;;;6.95;nan
34328;BME280;20588;48.840;10.064;2023-03-25T05:56:17;95925.19;;;6.98;nan
34328;BME280;20588;48.840;10.064;2023-03-25T05:58:45;95932.84;;;7.05;nan
34328;BME280;20588;48.840;10.064;2023-03-25T06:01:11;95928.50;;;7.05;nan
34328;BME280;20588;48.840;10.064;2023-03-25T06:03:44;95914.72;;;7.13;nan
34328;BME280;20588;48.840;10.064;2023-03-25T06:06:11;95926.06;;;7.23;nan
34328;BME280;20588;48.840;10.064;2023-03-25T06:08:44;95918.31;;;7.43;nan
34328;BME280;20588;48.840;10.064;2023-03-25T06:11:10;95922.94;;;7.59;nan
34328;BME280;20588;48.840;10.064;2023-03-25T06:13:40;95900.38;;;7.74;nan
34328;BME280;20588;48.840;10.064;2023-03-25T06:16:07;95906.75;;;7.96;nan
34328;BME280;20588;48.840;10.064;2023-03-25T06:18:37;95919.03;;;8.12;nan
34328;BME280;20588;48.840;10.064;2023-03-25T06:21:03;95918.00;;;8.44;nan
34328;BME280;20588;48.840;10.064;2023-03-25T06:23:30;95912.03;;;8.68;nan
34328;BME280;20588;48.840;10.064;2023-03-25T06:26:00;95913.53;;;8.76;nan
34328;BME280;20588;48.840;10.064;2023-03-25T06:28:26;95902.28;;;10.36;nan
34328;BME280;20588;48.840;10.064;2023-03-25T06:30:52;95906.72;;;12.27;nan
34328;BME280;20588;48.840;10.064;2023-03-25T06:33:18;95903.44;;;13.51;nan
34328;BME280;20588;48.840;10.064;2023-03-25T06:35:47;95944.13;;;16.00;nan
34328;BME280;20588;48.840;10.064;2023-03-25T06:38:20;95920.50;;;16.02;nan
34328;BME280;20588;48.840;10.064;2023-03-25T06:40:49;95920.38;;;14.90;nan
34328;BME280;20588;48.840;10.064;2023-03-25T06:43:15;95923.94;;;14.11;nan
34328;BME280;20588;48.840;10.064;2023-03-25T06:45:42;95920.38;;;14.48;nan
34328;BME280;20588;48.840;10.064;2023-03-25T06:48:08;95926.72;;;15.19;nan
34328;BME280;20588;48.840;10.064;2023-03-25T06:50:34;95924.38;;;16.04;nan
34328;BME280;20588;48.840;10.064;2023-03-25T06:53:00;95931.34;;;15.79;nan
34328;BME280;20588;48.840;10.064;2023-03-25T06:55:28;95916.94;;;14.80;nan
34328;BME280;20588;48.840;10.064;2023-03-25T06:57:55;95918.91;;;14.26;nan
34328;BME280;20588;48.840;10.064;2023-03-25T07:00:21;95916.09;;;13.74;nan
34328;BME280;20588;48.840;10.064;2023-03-25T07:02:49;95923.91;;;13.10;nan
34328;BME280;20588;48.840;10.064;2023-03-25T07:05:15;95923.84;;;12.88;nan
34328;BME280;20588;48.840;10.064;2023-03-25T07:07:41;95928.28;;;12.54;nan
34328;BME280;20588;48.840;10.064;2023-03-25T07:10:10;95937.81;;;12.04;nan
34328;BME280;20588;48.840;10.064;2023-03-25T07:12:36;95939.50;;;11.82;nan
34328;BME280;20588;48.840;10.064;2023-03-25T07:15:02;95936.66;;;11.67;nan
34328;BME280;20588;48.840;10.064;2023-03-25T07:17:28;95930.38;;;11.63;nan
34328;BME280;20588;48.840;10.064;2023-03-25T07:19:55;95941.03;;;13.16;nan
34328;BME280;20588;48.840;10.064;2023-03-25T07:22:21;95936.81;;;14.32;nan
34328;BME280;20588;48.840;10.064;2023-03-25T07:24:47;95922.31;;;13.52;nan
34328;BME280;20588;48.840;10.064;2023-03-25T07:27:14;95931.59;;;13.05;nan
34328;BME280;20588;48.840;10.064;2023-03-25T07:29:40;95929.06;;;14.32;nan
34328;BME280;20588;48.840;10.064;2023-03-25T07:32:06;95921.16;;;17.18;nan
34328;BME280;20588;48.840;10.064;2023-03-25T07:34:32;95928.19;;;20.64;nan
34328;BME280;20588;48.840;10.064;2023-03-25T07:36:59;95917.75;;;21.59;nan
34328;BME280;20588;48.840;10.064;2023-03-25T07:39:25;95916.00;;;19.29;nan
34328;BME280;20588;48.840;10.064;2023-03-25T07:41:52;95926.63;;;19.09;nan
34328;BME280;20588;48.840;10.064;2023-03-25T07:44:18;95908.56;;;21.07;nan
34328;BME280;20588;48.840;10.064;2023-03-25T07:46:48;95914.56;;;23.64;nan
34328;BME280;20588;48.840;10.064;2023-03-25T07:49:15;95902.66;;;25.44;nan
34328;BME280;20588;48.840;10.064;2023-03-25T07:51:42;95908.19;;;25.22;nan
34328;BME280;20588;48.840;10.064;2023-03-25T07:54:08;95906.84;;;24.44;nan
34328;BME280;20588;48.840;10.064;2023-03-25T07:56:35;95911.03;;;24.19;nan
34328;BME280;20588;48.840;10.064;2023-03-25T07:59:01;95913.47;;;23.65;nan
34328;BME280;20588;48.840;10.064;2023-03-25T08:01:28;95913.78;;;23.63;nan
34328;BME280;20588;48.840;10.064;2023-03-25T08:03:54;95919.44;;;24.93;nan
34328;BME280;20588;48.840;10.064;2023-03-25T08:06:20;95918.59;;;24.55;nan
34328;BME280;20588;48.840;10.064;2023-03-25T08:08:46;95934.13;;;23.10;nan
34328;BME280;20588;48.840;10.064;2023-03-25T08:11:12;95927.81;;;20.38;nan
34328;BME280;20588;48.840;10.064;2023-03-25T08:13:38;95945.31;;;18.64;nan
34328;BME280;20588;48.840;10.064;2023-03-25T08:16:10;95949.25;;;17.16;nan
34328;BME280;20588;48.840;10.064;2023-03-25T08:18:37;95955.28;;;16.21;nan
34328;BME280;20588;48.840;10.064;2023-03-25T08:21:03;95955.00;;;15.92;nan
34328;BME280;20588;48.840;10.064;2023-03-25T08:23:30;95946.84;;;15.49;nan
34328;BME280;20588;48.840;10.064;2023-03-25T08:25:56;95949.59;;;17.68;nan
34328;BME280;20588;48.840;10.064;2023-03-25T08:28:22;95940.78;;;19.03;nan
34328;BME280;20588;48.840;10.064;2023-03-25T08:30:50;95936.69;;;19.44;nan
34328;BME280;20588;48.840;10.064;2023-03-25T08:33:20;95940.72;;;20.94;nan
34328;BME280;20588;48.840;10.064;2023-03-25T08:35:47;95934.28;;;22.74;nan
34328;BME280;20588;48.840;10.064;2023-03-25T08:38:15;95933.28;;;23.79;nan
34328;BME280;20588;48.840;10.064;2023-03-25T08:40:42;95928.22;;;25.52;nan
34328;BME280;20588;48.840;10.064;2023-03-25T08:43:10;95925.28;;;27.85;nan
34328;BME280;20588;48.840;10.064;2023-03-25T08:45:36;95919.44;;;29.17;nan
34328;BME280;20588;48.840;10.064;2023-03-25T08:48:03;95920.00;;;28.80;nan
34328;BME280;20588;48.840;10.064;2023-03-25T08:50:29;95908.34;;;29.27;nan
34328;BME280;20588;48.840;10.064;2023-03-25T08:52:58;95928.72;;;28.25;nan
34328;BME280;20588;48.840;10.064;2023-03-25T08:55:25;95924.00;;;25.22;nan
34328;BME280;20588;48.840;10.064;2023-03-25T08:57:51;95912.72;;;23.64;nan
34328;BME280;20588;48.840;10.064;2023-03-25T09:00:17;95906.56;;;21.31;nan
34328;BME280;20588;48.840;10.064;2023-03-25T09:02:49;95908.78;;;20.97;nan
34328;BME280;20588;48.840;10.064;2023-03-25T09:05:15;95903.53;;;22.44;nan
34328;BME280;20588;48.840;10.064;2023-03-25T09:07:41;95907.81;;;24.31;nan
34328;BME280;20588;48.840;10.064;2023-03-25T09:10:08;95904.25;;;24.90;nan
34328;BME280;20588;48.840;10.064;2023-03-25T09:12:34;95904.94;;;24.61;nan
34328;BME280;20588;48.840;10.064;2023-03-25T09:15:00;95905.78;;;24.02;nan
34328;BME280;20588;48.840;10.064;2023-03-25T09:17:27;95894.63;;;23.63;nan
34328;BME280;20588;48.840;10.064;2023-03-25T09:19:53;95887.38;;;23.21;nan
34328;BME280;20588;48.840;10.064;2023-03-25T09:22:19;95890.56;;;21.82;nan
34328;BME280;20588;48.840;10.064;2023-03-25T09:24:45;95879.50;;;20.95;nan
34328;BME280;20588;48.840;10.064;2023-03-25T09:27:11;95892.16;;;19.54;nan
34328;BME280;20588;48.840;10.064;2023-03-25T09:29:37;95891.41;;;17.92;nan
34328;BME280;20588;48.840;10.064;2023-03-25T09:32:03;95901.38;;;17.22;nan
34328;BME280;20588;48.840;10.064;2023-03-25T09:34:29;95906.72;;;16.62;nan
34328;BME280;20588;48.840;10.064;2023-03-25T09:36:55;95916.06;;;15.82;nan
34328;BME280;20588;48.840;10.064;2023-03-25T09:39:21;95908.44;;;14.89;nan
34328;BME280;20588;48.840;10.064;2023-03-25T09:48:08;95907.59;;;13.52;nan
34328;BME280;20588;48.840;10.064;2023-03-25T09:50:33;95904.63;;;13.39;nan
34328;BME280;20588;48.840;10.064;2023-03-25T09:53:45;95912.63;;;13.16;nan
34328;BME280;20588;48.840;10.064;2023-03-25T09:55:52;95906.91;;;12.97;nan
34328;BME280;20588;48.840;10.064;2023-03-25T09:58:29;95910.91;;;13.05;nan
34328;BME280;20588;48.840;10.064;2023-03-25T10:01:17;95923.69;;;13.33;nan
34328;BME280;20588;48.840;10.064;2023-03-25T10:06:20;95917.34;;;13.98;nan
34328;BME280;20588;48.840;10.064;2023-03-25T10:11:54;95897.94;;;13.96;nan
34328;BME280;20588;48.840;10.064;2023-03-25T10:14:32;95892.38;;;14.45;nan
34328;BME280;20588;48.840;10.064;2023-03-25T10:17:04;95890.38;;;15.04;nan
34328;BME280;20588;48.840;10.064;2023-03-25T10:25:28;95891.31;;;17.05;nan
34328;BME280;20588;48.840;10.064;2023-03-25T10:27:56;95897.13;;;16.67;nan
34328;BME280;20588;48.840;10.064;2023-03-25T10:30:34;95892.72;;;16.33;nan
34328;BME280;20588;48.840;10.064;2023-03-25T10:33:19;95893.25;;;16.04;nan
34328;BME280;20588;48.840;10.064;2023-03-25T10:35:50;95878.72;;;16.18;nan
34328;BME280;20588;48.840;10.064;2023-03-25T10:38:21;95873.44;;;16.89;nan
34328;BME280;20588;48.840;10.064;2023-03-25T10:41:36;95870.69;;;18.11;nan
34328;BME280;20588;48.840;10.064;2023-03-25T10:43:41;95858.28;;;19.31;nan
34328;BME280;20588;48.840;10.064;2023-03-25T10:46:42;95854.66;;;20.20;nan
34328;BME280;20588;48.840;10.064;2023-03-25T10:49:19;95842.38;;;20.66;nan
34328;BME280;20588;48.840;10.064;2023-03-25T10:51:47;95859.44;;;21.04;nan
34328;BME280;20588;48.840;10.064;2023-03-25T10:54:15;95854.38;;;20.80;nan
34328;BME280;20588;48.840;10.064;2023-03-25T10:56:51;95849.75;;;20.32;nan
34328;BME280;20588;48.840;10.064;2023-03-25T11:02:18;95848.88;;;20.23;nan
34328;BME280;20588;48.840;10.064;2023-03-25T11:04:48;95853.78;;;20.83;nan
34328;BME280;20588;48.840;10.064;2023-03-25T11:07:24;95853.03;;;21.10;nan
34328;BME280;20588;48.840;10.064;2023-03-25T11:09:51;95847.56;;;21.47;nan
34328;BME280;20588;48.840;10.064;2023-03-25T11:12:19;95840.94;;;21.50;nan
34328;BME280;20588;48.840;10.064;2023-03-25T11:14:54;95834.97;;;21.71;nan
34328;BME280;20588;48.840;10.064;2023-03-25T11:17:22;95824.53;;;21.08;nan
34328;BME280;20588;48.840;10.064;2023-03-25T11:19:52;95822.03;;;21.53;nan
34328;BME280;20588;48.840;10.064;2023-03-25T11:22:28;95817.31;;;21.77;nan
34328;BME280;20588;48.840;10.064;2023-03-25T11:27:48;95812.84;;;19.69;nan
34328;BME280;20588;48.840;10.064;2023-03-25T11:30:19;95808.53;;;19.22;nan
34328;BME280;20588;48.840;10.064;2023-03-25T11:33:02;95822.94;;;19.57;nan
34328;BME280;20588;48.840;10.064;2023-03-25T11:35:31;95816.13;;;18.77;nan
34328;BME280;20588;48.840;10.064;2023-03-25T11:38:01;95821.63;;;18.99;nan
34328;BME280;20588;48.840;10.064;2023-03-25T11:40:29;95834.97;;;19.16;nan
34328;BME280;20588;48.840;10.064;2023-03-25T11:42:57;95826.84;;;18.99;nan
34328;BME280;20588;48.840;10.064;2023-03-25T11:45:32;95817.38;;;19.03;nan
34328;BME280;20588;48.840;10.064;2023-03-25T11:48:01;95832.00;;;19.22;nan
34328;BME280;20588;48.840;10.064;2023-03-25T11:50:34;95844.97;;;18.05;nan
34328;BME280;20588;48.840;10.064;2023-03-25T11:53:02;95844.53;;;17.54;nan
34328;BME280;20588;48.840;10.064;2023-03-25T11:55:41;95843.34;;;16.58;nan
34328;BME280;20588;48.840;10.064;2023-03-25T11:58:14;95853.75;;;15.62;nan
34328;BME280;20588;48.840;10.064;2023-03-25T12:00:46;95851.25;;;15.01;nan
34328;BME280;20588;48.840;10.064;2023-03-25T12:05:40;95854.88;;;14.16;nan
34328;BME280;20588;48.840;10.064;2023-03-25T12:08:12;95856.84;;;13.73;nan
34328;BME280;20588;48.840;10.064;2023-03-25T12:10:53;95840.16;;;13.54;nan
34328;BME280;20588;48.840;10.064;2023-03-25T12:16:05;95858.44;;;15.75;nan
34328;BME280;20588;48.840;10.064;2023-03-25T12:21:53;95844.75;;;17.09;nan
34328;BME280;20588;48.840;10.064;2023-03-25T12:27:33;95831.13;;;18.09;nan
34328;BME280;20588;48.840;10.064;2023-03-25T12:30:11;95826.34;;;18.16;nan
34328;BME280;20588;48.840;10.064;2023-03-25T12:36:11;95817.09;;;18.05;nan
34328;BME280;20588;48.840;10.064;2023-03-25T13:08:17;95823.81;;;16.80;nan
34328;BME280;20588;48.840;10.064;2023-03-25T13:10:54;95823.22;;;16.98;nan
34328;BME280;20588;48.840;10.064;2023-03-25T13:13:23;95815.59;;;17.12;nan
34328;BME280;20588;48.840;10.064;2023-03-25T13:16:12;95809.38;;;17.13;nan
34328;BME280;20588;48.840;10.064;2023-03-25T13:21:35;95813.53;;;17.09;nan
34328;BME280;20588;48.840;10.064;2023-03-25T13:26:35;95801.59;;;16.19;nan
34328;BME280;20588;48.840;10.064;2023-03-25T13:29:17;95804.75;;;15.81;nan
34328;BME280;20588;48.840;10.064;2023-03-25T13:31:47;95803.44;;;15.43;nan
34328;BME280;20588;48.840;10.064;2023-03-25T13:34:35;95815.50;;;15.18;nan
34328;BME280;20588;48.840;10.064;2023-03-25T13:39:59;95847.28;;;14.88;nan
34328;BME280;20588;48.840;10.064;2023-03-25T13:51:06;95860.25;;;15.60;nan
34328;BME280;20588;48.840;10.064;2023-03-25T14:01:56;95855.06;;;15.85;nan
34328;BME280;20588;48.840;10.064;2023-03-25T14:04:47;95855.50;;;15.37;nan
34328;BME280;20588;48.840;10.064;2023-03-25T14:07:43;95868.06;;;14.98;nan
34328;BME280;20588;48.840;10.064;2023-03-25T14:12:56;95860.34;;;14.57;nan
34328;BME280;20588;48.840;10.064;2023-03-25T14:17:53;95854.34;;;14.51;nan
34328;BME280;20588;48.840;10.064;2023-03-25T14:20:28;95850.72;;;14.47;nan
34328;BME280;20588;48.840;10.064;2023-03-25T14:23:00;95857.59;;;14.31;nan
34328;BME280;20588;48.840;10.064;2023-03-25T14:25:33;95853.78;;;14.44;nan
34328;BME280;20588;48.840;10.064;2023-03-25T14:28:02;95846.00;;;14.39;nan
34328;BME280;20588;48.840;10.064;2023-03-25T14:30:28;95859.84;;;14.23;nan
34328;BME280;20588;48.840;10.064;2023-03-25T14:32:56;95852.53;;;14.10;nan
34328;BME280;20588;48.840;10.064;2023-03-25T14:43:31;95848.00;;;13.95;nan
34328;BME280;20588;48.840;10.064;2023-03-25T14:46:15;95858.09;;;13.97;nan
34328;BME280;20588;48.840;10.064;2023-03-25T14:57:00;95844.13;;;13.40;nan
34328;BME280;20588;48.840;10.064;2023-03-25T15:00:16;95845.97;;;13.18;nan
34328;BME280;20588;48.840;10.064;2023-03-25T15:02:30;95853.66;;;12.91;nan
34328;BME280;20588;48.840;10.064;2023-03-25T15:05:00;95881.16;;;12.81;nan
34328;BME280;20588;48.840;10.064;2023-03-25T15:07:58;95901.06;;;12.47;nan
34328;BME280;20588;48.840;10.064;2023-03-25T15:10:28;95905.16;;;12.26;nan
34328;BME280;20588;48.840;10.064;2023-03-25T15:13:19;95911.06;;;12.43;nan
34328;BME280;20588;48.840;10.064;2023-03-25T15:26:42;95872.84;;;13.17;nan
34328;BME280;20588;48.840;10.064;2023-03-25T15:29:37;95868.19;;;12.97;nan
34328;BME280;20588;48.840;10.064;2023-03-25T15:52:11;95866.44;;;12.43;nan
34328;BME280;20588;48.840;10.064;2023-03-25T15:55:33;95864.63;;;12.43;nan
34328;BME280;20588;48.840;10.064;2023-03-25T15:57:45;95855.81;;;12.39;nan
34328;BME280;20588;48.840;10.064;2023-03-25T16:00:14;95870.13;;;12.30;nan
34328;BME280;20588;48.840;10.064;2023-03-25T16:03:07;95866.78;;;12.13;nan
34328;BME280;20588;48.840;10.064;2023-03-25T16:05:43;95856.78;;;12.00;nan
34328;BME280;20588;48.840;10.064;2023-03-25T16:11:24;95853.19;;;12.01;nan
34328;BME280;20588;48.840;10.064;2023-03-25T16:14:09;95854.81;;;12.07;nan
34328;BME280;20588;48.840;10.064;2023-03-25T16:16:38;95855.00;;;12.17;nan
34328;BME280;20588;48.840;10.064;2023-03-25T16:19:09;95846.94;;;12.14;nan
34328;BME280;20588;48.840;10.064;2023-03-25T16:21:37;95846.69;;;12.15;nan
34328;BME280;20588;48.840;10.064;2023-03-25T16:24:05;95841.94;;;12.07;nan
34328;BME280;20588;48.840;10.064;2023-03-25T16:26:35;95847.25;;;12.01;nan
34328;BME280;20588;48.840;10.064;2023-03-25T16:29:13;95841.09;;;12.02;nan
34328;BME280;20588;48.840;10.064;2023-03-25T16:31:48;95846.09;;;12.08;nan
34328;BME280;20588;48.840;10.064;2023-03-25T16:34:15;95838.97;;;12.15;nan